sensor_id;sensor_type;location;lat;lon;timestamp;P1;durP1;ratioP1;P2;durP2;ratioP2
39654;SDS011;25336;59.944;11.010;2022-11-10T00:00:19;7.85;;;2.78;;
39654;SDS011;25336;59.944;11.010;2022-11-10T00:02:45;6.18;;;2.67;;
39654;SDS011;25336;59.944;11.010;2022-11-10T00:05:12;5.55;;;2.92;;
39654;SDS011;25336;59.944;11.010;2022-11-10T00:07:39;6.80;;;2.75;;
39654;SDS011;25336;59.944;11.010;2022-11-10T00:10:06;9.50;;;3.22;;
39654;SDS011;25336;59.944;11.010;2022-11-10T00:12:32;8.20;;;2.97;;
39654;SDS011;25336;59.944;11.010;2022-11-10T00:14:59;6.95;;;2.67;;
39654;SDS011;25336;59.944;11.010;2022-11-10T00:17:43;6.05;;;2.78;;
39654;SDS011;25336;59.944;11.010;2022-11-10T00:20:09;7.03;;;2.50;;
39654;SDS011;25336;59.944;11.010;2022-11-10T00:22:36;9.50;;;3.42;;
39654;SDS011;25336;59.944;11.010;2022-11-10T00:25:03;6.60;;;2.80;;
39654;SDS011;25336;59.944;11.010;2022-11-10T00:27:32;7.40;;;2.92;;
39654;SDS011;25336;59.944;11.010;2022-11-10T00:29:59;7.95;;;3.00;;
39654;SDS011;25336;59.944;11.010;2022-11-10T00:32:24;10.57;;;2.65;;
39654;SDS011;25336;59.944;11.010;2022-11-10T00:34:50;7.85;;;2.58;;
39654;SDS011;25336;59.944;11.010;2022-11-10T00:37:16;9.65;;;2.90;;
39654;SDS011;25336;59.944;11.010;2022-11-10T00:39:42;6.78;;;2.50;;
39654;SDS011;25336;59.944;11.010;2022-11-10T00:42:08;6.53;;;2.35;;
39654;SDS011;25336;59.944;11.010;2022-11-10T00:44:34;8.30;;;2.65;;
39654;SDS011;25336;59.944;11.010;2022-11-10T00:46:59;5.60;;;2.53;;
39654;SDS011;25336;59.944;11.010;2022-11-10T00:49:25;4.47;;;2.50;;
39654;SDS011;25336;59.944;11.010;2022-11-10T00:51:51;7.63;;;3.20;;
39654;SDS011;25336;59.944;11.010;2022-11-10T00:54:17;8.85;;;3.15;;
39654;SDS011;25336;59.944;11.010;2022-11-10T00:56:43;9.55;;;2.58;;
39654;SDS011;25336;59.944;11.010;2022-11-10T00:59:09;7.03;;;2.40;;
39654;SDS011;25336;59.944;11.010;2022-11-10T01:01:34;7.65;;;2.40;;
39654;SDS011;25336;59.944;11.010;2022-11-10T01:04:00;3.50;;;2.30;;
39654;SDS011;25336;59.944;11.010;2022-11-10T01:06:25;7.20;;;2.47;;
39654;SDS011;25336;59.944;11.010;2022-11-10T01:08:51;9.55;;;2.83;;
39654;SDS011;25336;59.944;11.010;2022-11-10T01:11:18;4.82;;;2.85;;
39654;SDS011;25336;59.944;11.010;2022-11-10T01:13:49;8.02;;;3.00;;
39654;SDS011;25336;59.944;11.010;2022-11-10T01:16:18;4.55;;;2.53;;
39654;SDS011;25336;59.944;11.010;2022-11-10T01:21:17;5.43;;;2.72;;
39654;SDS011;25336;59.944;11.010;2022-11-10T01:23:44;4.55;;;2.40;;
39654;SDS011;25336;59.944;11.010;2022-11-10T01:26:10;7.63;;;2.40;;
39654;SDS011;25336;59.944;11.010;2022-11-10T01:28:35;12.95;;;2.78;;
39654;SDS011;25336;59.944;11.010;2022-11-10T01:31:03;4.82;;;2.17;;
39654;SDS011;25336;59.944;11.010;2022-11-10T01:33:30;6.53;;;2.38;;
39654;SDS011;25336;59.944;11.010;2022-11-10T01:35:57;5.05;;;2.05;;
39654;SDS011;25336;59.944;11.010;2022-11-10T01:38:25;8.18;;;2.33;;
39654;SDS011;25336;59.944;11.010;2022-11-10T01:40:51;7.60;;;2.38;;
39654;SDS011;25336;59.944;11.010;2022-11-10T01:43:17;8.93;;;2.72;;
39654;SDS011;25336;59.944;11.010;2022-11-10T01:45:44;8.93;;;2.53;;
39654;SDS011;25336;59.944;11.010;2022-11-10T01:48:18;8.05;;;2.53;;
39654;SDS011;25336;59.944;11.010;2022-11-10T01:50:49;5.47;;;2.63;;
39654;SDS011;25336;59.944;11.010;2022-11-10T01:53:17;7.88;;;2.40;;
39654;SDS011;25336;59.944;11.010;2022-11-10T01:55:48;7.07;;;2.20;;
39654;SDS011;25336;59.944;11.010;2022-11-10T01:58:15;6.13;;;2.65;;
39654;SDS011;25336;59.944;11.010;2022-11-10T02:00:44;9.18;;;2.38;;
39654;SDS011;25336;59.944;11.010;2022-11-10T02:03:15;9.57;;;2.80;;
39654;SDS011;25336;59.944;11.010;2022-11-10T02:05:55;6.88;;;2.75;;
39654;SDS011;25336;59.944;11.010;2022-11-10T02:08:22;10.50;;;3.28;;
39654;SDS011;25336;59.944;11.010;2022-11-10T02:10:49;6.57;;;2.90;;
39654;SDS011;25336;59.944;11.010;2022-11-10T02:13:14;5.28;;;2.80;;
39654;SDS011;25336;59.944;11.010;2022-11-10T02:15:40;5.95;;;2.28;;
39654;SDS011;25336;59.944;11.010;2022-11-10T02:18:06;9.50;;;2.50;;
39654;SDS011;25336;59.944;11.010;2022-11-10T02:20:32;7.32;;;2.50;;
39654;SDS011;25336;59.944;11.010;2022-11-10T02:22:58;6.97;;;2.80;;
39654;SDS011;25336;59.944;11.010;2022-11-10T02:25:24;4.15;;;2.10;;
39654;SDS011;25336;59.944;11.010;2022-11-10T02:27:56;5.28;;;2.80;;
39654;SDS011;25336;59.944;11.010;2022-11-10T02:30:22;6.10;;;2.72;;
39654;SDS011;25336;59.944;11.010;2022-11-10T02:32:47;5.13;;;2.58;;
39654;SDS011;25336;59.944;11.010;2022-11-10T02:35:13;7.20;;;2.83;;
39654;SDS011;25336;59.944;11.010;2022-11-10T02:37:38;6.43;;;2.55;;
39654;SDS011;25336;59.944;11.010;2022-11-10T02:40:04;6.32;;;2.85;;
39654;SDS011;25336;59.944;11.010;2022-11-10T02:42:30;4.20;;;2.13;;
39654;SDS011;25336;59.944;11.010;2022-11-10T02:44:56;5.15;;;2.25;;
39654;SDS011;25336;59.944;11.010;2022-11-10T02:47:22;5.05;;;2.35;;
39654;SDS011;25336;59.944;11.010;2022-11-10T02:49:47;7.57;;;2.40;;
39654;SDS011;25336;59.944;11.010;2022-11-10T02:52:13;11.45;;;3.28;;
39654;SDS011;25336;59.944;11.010;2022-11-10T02:54:39;6.20;;;2.55;;
39654;SDS011;25336;59.944;11.010;2022-11-10T02:57:04;4.70;;;1.92;;
39654;SDS011;25336;59.944;11.010;2022-11-10T02:59:30;8.65;;;2.88;;
39654;SDS011;25336;59.944;11.010;2022-11-10T03:01:55;5.20;;;3.13;;
39654;SDS011;25336;59.944;11.010;2022-11-10T03:04:21;4.85;;;2.55;;
39654;SDS011;25336;59.944;11.010;2022-11-10T03:06:47;4.47;;;2.50;;
39654;SDS011;25336;59.944;11.010;2022-11-10T03:09:12;3.80;;;2.30;;
39654;SDS011;25336;59.944;11.010;2022-11-10T03:11:38;3.78;;;2.65;;
39654;SDS011;25336;59.944;11.010;2022-11-10T03:14:03;3.38;;;2.03;;
39654;SDS011;25336;59.944;11.010;2022-11-10T03:16:29;3.03;;;2.17;;
39654;SDS011;25336;59.944;11.010;2022-11-10T03:18:54;4.13;;;2.03;;
39654;SDS011;25336;59.944;11.010;2022-11-10T03:21:20;2.58;;;1.70;;
39654;SDS011;25336;59.944;11.010;2022-11-10T03:23:46;4.53;;;2.50;;
39654;SDS011;25336;59.944;11.010;2022-11-10T03:26:11;9.93;;;2.05;;
39654;SDS011;25336;59.944;11.010;2022-11-10T03:28:38;4.32;;;2.15;;
39654;SDS011;25336;59.944;11.010;2022-11-10T03:31:04;3.88;;;2.00;;
39654;SDS011;25336;59.944;11.010;2022-11-10T03:33:29;4.97;;;2.30;;
39654;SDS011;25336;59.944;11.010;2022-11-10T03:35:55;4.82;;;2.30;;
39654;SDS011;25336;59.944;11.010;2022-11-10T03:38:20;3.25;;;2.00;;
39654;SDS011;25336;59.944;11.010;2022-11-10T03:40:48;5.18;;;2.22;;
39654;SDS011;25336;59.944;11.010;2022-11-10T03:43:14;2.25;;;1.88;;
39654;SDS011;25336;59.944;11.010;2022-11-10T03:45:42;4.88;;;2.20;;
39654;SDS011;25336;59.944;11.010;2022-11-10T03:48:08;3.03;;;1.73;;
39654;SDS011;25336;59.944;11.010;2022-11-10T03:50:34;2.90;;;1.85;;
39654;SDS011;25336;59.944;11.010;2022-11-10T03:53:00;3.38;;;2.08;;
39654;SDS011;25336;59.944;11.010;2022-11-10T03:55:26;4.00;;;2.20;;
39654;SDS011;25336;59.944;11.010;2022-11-10T03:57:51;5.05;;;1.88;;
39654;SDS011;25336;59.944;11.010;2022-11-10T04:00:17;4.57;;;2.13;;
39654;SDS011;25336;59.944;11.010;2022-11-10T04:02:44;6.20;;;2.22;;
39654;SDS011;25336;59.944;11.010;2022-11-10T04:05:09;6.47;;;2.25;;
39654;SDS011;25336;59.944;11.010;2022-11-10T04:07:59;3.45;;;1.92;;
39654;SDS011;25336;59.944;11.010;2022-11-10T04:10:44;2.92;;;2.10;;
39654;SDS011;25336;59.944;11.010;2022-11-10T04:13:10;2.92;;;1.73;;
39654;SDS011;25336;59.944;11.010;2022-11-10T04:15:55;5.30;;;2.20;;
39654;SDS011;25336;59.944;11.010;2022-11-10T04:18:21;3.55;;;2.10;;
39654;SDS011;25336;59.944;11.010;2022-11-10T04:20:53;3.97;;;1.70;;
39654;SDS011;25336;59.944;11.010;2022-11-10T04:23:29;4.20;;;1.92;;
39654;SDS011;25336;59.944;11.010;2022-11-10T04:26:06;4.80;;;1.95;;
39654;SDS011;25336;59.944;11.010;2022-11-10T04:28:52;4.28;;;2.10;;
39654;SDS011;25336;59.944;11.010;2022-11-10T04:31:20;3.67;;;2.28;;
39654;SDS011;25336;59.944;11.010;2022-11-10T04:33:48;5.03;;;1.80;;
39654;SDS011;25336;59.944;11.010;2022-11-10T04:36:18;5.10;;;2.10;;
39654;SDS011;25336;59.944;11.010;2022-11-10T04:41:12;4.85;;;2.00;;
39654;SDS011;25336;59.944;11.010;2022-11-10T04:43:38;7.72;;;2.20;;
39654;SDS011;25336;59.944;11.010;2022-11-10T04:46:04;4.00;;;2.38;;
39654;SDS011;25336;59.944;11.010;2022-11-10T04:48:31;4.00;;;2.10;;
39654;SDS011;25336;59.944;11.010;2022-11-10T04:51:02;1.85;;;1.70;;
39654;SDS011;25336;59.944;11.010;2022-11-10T04:53:31;4.88;;;2.25;;
39654;SDS011;25336;59.944;11.010;2022-11-10T04:55:57;3.97;;;1.88;;
39654;SDS011;25336;59.944;11.010;2022-11-10T04:58:23;3.45;;;2.28;;
39654;SDS011;25336;59.944;11.010;2022-11-10T05:00:48;5.88;;;2.17;;
39654;SDS011;25336;59.944;11.010;2022-11-10T05:03:14;2.90;;;2.58;;
39654;SDS011;25336;59.944;11.010;2022-11-10T05:05:40;5.53;;;2.30;;
39654;SDS011;25336;59.944;11.010;2022-11-10T05:08:06;4.68;;;2.55;;
39654;SDS011;25336;59.944;11.010;2022-11-10T05:10:33;3.88;;;2.67;;
39654;SDS011;25336;59.944;11.010;2022-11-10T05:13:00;3.95;;;2.15;;
39654;SDS011;25336;59.944;11.010;2022-11-10T05:15:27;5.15;;;2.50;;
39654;SDS011;25336;59.944;11.010;2022-11-10T05:17:53;3.25;;;2.58;;
39654;SDS011;25336;59.944;11.010;2022-11-10T05:20:19;2.83;;;2.63;;
39654;SDS011;25336;59.944;11.010;2022-11-10T05:22:47;5.70;;;2.92;;
39654;SDS011;25336;59.944;11.010;2022-11-10T05:25:32;3.53;;;2.30;;
39654;SDS011;25336;59.944;11.010;2022-11-10T05:28:01;4.43;;;2.40;;
39654;SDS011;25336;59.944;11.010;2022-11-10T05:30:28;4.53;;;2.42;;
39654;SDS011;25336;59.944;11.010;2022-11-10T05:32:54;5.72;;;2.50;;
39654;SDS011;25336;59.944;11.010;2022-11-10T05:35:20;7.15;;;2.85;;
39654;SDS011;25336;59.944;11.010;2022-11-10T05:37:46;5.20;;;2.38;;
39654;SDS011;25336;59.944;11.010;2022-11-10T05:40:12;5.97;;;3.00;;
39654;SDS011;25336;59.944;11.010;2022-11-10T05:42:44;4.97;;;3.00;;
39654;SDS011;25336;59.944;11.010;2022-11-10T05:45:16;2.90;;;2.25;;
39654;SDS011;25336;59.944;11.010;2022-11-10T05:47:43;6.72;;;2.63;;
39654;SDS011;25336;59.944;11.010;2022-11-10T05:50:09;5.50;;;2.78;;
39654;SDS011;25336;59.944;11.010;2022-11-10T05:52:38;3.55;;;3.10;;
39654;SDS011;25336;59.944;11.010;2022-11-10T05:55:06;7.10;;;3.47;;
39654;SDS011;25336;59.944;11.010;2022-11-10T05:57:32;2.67;;;2.45;;
39654;SDS011;25336;59.944;11.010;2022-11-10T05:59:58;5.85;;;2.65;;
39654;SDS011;25336;59.944;11.010;2022-11-10T06:02:23;6.70;;;2.88;;
39654;SDS011;25336;59.944;11.010;2022-11-10T06:04:49;3.63;;;2.80;;
39654;SDS011;25336;59.944;11.010;2022-11-10T06:07:15;8.10;;;2.83;;
39654;SDS011;25336;59.944;11.010;2022-11-10T06:09:40;3.72;;;2.38;;
39654;SDS011;25336;59.944;11.010;2022-11-10T06:12:06;5.05;;;2.40;;
39654;SDS011;25336;59.944;11.010;2022-11-10T06:14:32;3.30;;;3.00;;
39654;SDS011;25336;59.944;11.010;2022-11-10T06:16:57;5.03;;;3.03;;
39654;SDS011;25336;59.944;11.010;2022-11-10T06:19:23;6.90;;;3.08;;
39654;SDS011;25336;59.944;11.010;2022-11-10T06:21:49;3.53;;;2.60;;
39654;SDS011;25336;59.944;11.010;2022-11-10T06:24:14;5.78;;;2.92;;
39654;SDS011;25336;59.944;11.010;2022-11-10T06:26:40;5.95;;;3.00;;
39654;SDS011;25336;59.944;11.010;2022-11-10T06:29:06;3.72;;;2.78;;
39654;SDS011;25336;59.944;11.010;2022-11-10T06:31:31;4.40;;;2.70;;
39654;SDS011;25336;59.944;11.010;2022-11-10T06:33:57;7.15;;;2.95;;
39654;SDS011;25336;59.944;11.010;2022-11-10T06:36:22;5.55;;;2.88;;
39654;SDS011;25336;59.944;11.010;2022-11-10T06:38:48;4.55;;;2.95;;
39654;SDS011;25336;59.944;11.010;2022-11-10T06:41:14;5.47;;;3.10;;
39654;SDS011;25336;59.944;11.010;2022-11-10T06:43:39;3.85;;;2.72;;
39654;SDS011;25336;59.944;11.010;2022-11-10T06:46:05;7.63;;;4.65;;
39654;SDS011;25336;59.944;11.010;2022-11-10T06:48:31;8.35;;;4.22;;
39654;SDS011;25336;59.944;11.010;2022-11-10T06:51:00;7.00;;;3.50;;
39654;SDS011;25336;59.944;11.010;2022-11-10T06:53:25;5.78;;;2.70;;
39654;SDS011;25336;59.944;11.010;2022-11-10T06:55:51;5.65;;;3.47;;
39654;SDS011;25336;59.944;11.010;2022-11-10T06:58:17;5.50;;;2.20;;
39654;SDS011;25336;59.944;11.010;2022-11-10T07:00:43;7.72;;;3.00;;
39654;SDS011;25336;59.944;11.010;2022-11-10T07:03:11;13.20;;;2.97;;
39654;SDS011;25336;59.944;11.010;2022-11-10T07:05:38;5.20;;;3.10;;
39654;SDS011;25336;59.944;11.010;2022-11-10T07:08:05;6.05;;;3.33;;
39654;SDS011;25336;59.944;11.010;2022-11-10T07:10:37;8.52;;;3.75;;
39654;SDS011;25336;59.944;11.010;2022-11-10T07:13:03;6.22;;;3.70;;
39654;SDS011;25336;59.944;11.010;2022-11-10T07:15:29;11.18;;;4.18;;
39654;SDS011;25336;59.944;11.010;2022-11-10T07:17:55;8.35;;;4.40;;
39654;SDS011;25336;59.944;11.010;2022-11-10T07:20:21;8.93;;;4.53;;
39654;SDS011;25336;59.944;11.010;2022-11-10T07:22:46;5.97;;;4.03;;
39654;SDS011;25336;59.944;11.010;2022-11-10T07:25:12;7.00;;;3.95;;
39654;SDS011;25336;59.944;11.010;2022-11-10T07:27:38;5.53;;;4.82;;
39654;SDS011;25336;59.944;11.010;2022-11-10T07:30:04;10.63;;;5.03;;
39654;SDS011;25336;59.944;11.010;2022-11-10T07:32:31;9.52;;;5.00;;
39654;SDS011;25336;59.944;11.010;2022-11-10T07:34:56;6.18;;;3.25;;
39654;SDS011;25336;59.944;11.010;2022-11-10T07:37:22;7.75;;;3.55;;
39654;SDS011;25336;59.944;11.010;2022-11-10T07:39:48;13.05;;;4.88;;
39654;SDS011;25336;59.944;11.010;2022-11-10T07:42:13;7.07;;;4.30;;
39654;SDS011;25336;59.944;11.010;2022-11-10T07:44:39;6.90;;;4.10;;
39654;SDS011;25336;59.944;11.010;2022-11-10T07:47:05;10.13;;;4.63;;
39654;SDS011;25336;59.944;11.010;2022-11-10T07:49:31;14.98;;;4.88;;
39654;SDS011;25336;59.944;11.010;2022-11-10T07:51:56;8.65;;;5.10;;
39654;SDS011;25336;59.944;11.010;2022-11-10T07:54:22;6.65;;;3.50;;
39654;SDS011;25336;59.944;11.010;2022-11-10T07:56:47;5.78;;;3.13;;
39654;SDS011;25336;59.944;11.010;2022-11-10T07:59:13;8.45;;;3.30;;
39654;SDS011;25336;59.944;11.010;2022-11-10T08:01:39;8.98;;;3.05;;
39654;SDS011;25336;59.944;11.010;2022-11-10T08:04:04;6.40;;;3.50;;
39654;SDS011;25336;59.944;11.010;2022-11-10T08:06:30;6.93;;;4.55;;
39654;SDS011;25336;59.944;11.010;2022-11-10T08:08:56;8.70;;;4.65;;
39654;SDS011;25336;59.944;11.010;2022-11-10T08:11:22;11.35;;;6.00;;
39654;SDS011;25336;59.944;11.010;2022-11-10T08:13:48;14.38;;;9.38;;
39654;SDS011;25336;59.944;11.010;2022-11-10T08:16:13;15.38;;;9.18;;
39654;SDS011;25336;59.944;11.010;2022-11-10T08:18:39;15.65;;;10.18;;
39654;SDS011;25336;59.944;11.010;2022-11-10T08:21:04;23.98;;;11.85;;
39654;SDS011;25336;59.944;11.010;2022-11-10T08:23:31;19.23;;;9.05;;
39654;SDS011;25336;59.944;11.010;2022-11-10T08:25:57;19.85;;;10.00;;
39654;SDS011;25336;59.944;11.010;2022-11-10T08:28:23;12.52;;;6.97;;
39654;SDS011;25336;59.944;11.010;2022-11-10T08:30:50;16.40;;;6.60;;
39654;SDS011;25336;59.944;11.010;2022-11-10T08:33:17;13.25;;;5.15;;
39654;SDS011;25336;59.944;11.010;2022-11-10T08:35:44;14.40;;;5.53;;
39654;SDS011;25336;59.944;11.010;2022-11-10T08:38:13;8.02;;;4.13;;
39654;SDS011;25336;59.944;11.010;2022-11-10T08:40:40;12.85;;;6.80;;
39654;SDS011;25336;59.944;11.010;2022-11-10T08:43:07;7.07;;;5.10;;
39654;SDS011;25336;59.944;11.010;2022-11-10T08:45:37;9.50;;;4.68;;
39654;SDS011;25336;59.944;11.010;2022-11-10T08:48:06;10.48;;;4.07;;
39654;SDS011;25336;59.944;11.010;2022-11-10T08:50:42;7.13;;;3.90;;
39654;SDS011;25336;59.944;11.010;2022-11-10T08:53:13;9.65;;;4.75;;
39654;SDS011;25336;59.944;11.010;2022-11-10T08:55:43;5.45;;;4.10;;
39654;SDS011;25336;59.944;11.010;2022-11-10T08:58:13;10.25;;;4.80;;
39654;SDS011;25336;59.944;11.010;2022-11-10T09:00:40;7.15;;;4.43;;
39654;SDS011;25336;59.944;11.010;2022-11-10T09:03:07;12.25;;;5.10;;
39654;SDS011;25336;59.944;11.010;2022-11-10T09:05:40;5.32;;;4.50;;
39654;SDS011;25336;59.944;11.010;2022-11-10T09:08:07;11.75;;;4.97;;
39654;SDS011;25336;59.944;11.010;2022-11-10T09:10:34;11.50;;;6.28;;
39654;SDS011;25336;59.944;11.010;2022-11-10T09:13:02;10.45;;;5.85;;
39654;SDS011;25336;59.944;11.010;2022-11-10T09:15:29;11.50;;;7.18;;
39654;SDS011;25336;59.944;11.010;2022-11-10T09:18:00;13.48;;;8.20;;
39654;SDS011;25336;59.944;11.010;2022-11-10T09:20:27;15.73;;;8.25;;
39654;SDS011;25336;59.944;11.010;2022-11-10T09:22:54;14.23;;;7.78;;
39654;SDS011;25336;59.944;11.010;2022-11-10T09:25:20;15.40;;;8.38;;
39654;SDS011;25336;59.944;11.010;2022-11-10T09:27:46;12.10;;;7.63;;
39654;SDS011;25336;59.944;11.010;2022-11-10T09:30:12;17.33;;;6.82;;
39654;SDS011;25336;59.944;11.010;2022-11-10T09:32:38;12.20;;;7.18;;
39654;SDS011;25336;59.944;11.010;2022-11-10T09:35:04;12.25;;;6.07;;
39654;SDS011;25336;59.944;11.010;2022-11-10T09:37:30;9.30;;;4.65;;
39654;SDS011;25336;59.944;11.010;2022-11-10T09:39:56;11.68;;;4.85;;
39654;SDS011;25336;59.944;11.010;2022-11-10T09:42:26;10.40;;;5.40;;
39654;SDS011;25336;59.944;11.010;2022-11-10T09:44:59;10.23;;;4.00;;
39654;SDS011;25336;59.944;11.010;2022-11-10T09:47:40;9.88;;;2.90;;
39654;SDS011;25336;59.944;11.010;2022-11-10T09:50:17;11.82;;;3.35;;
39654;SDS011;25336;59.944;11.010;2022-11-10T09:52:50;7.43;;;2.70;;
39654;SDS011;25336;59.944;11.010;2022-11-10T09:55:19;7.68;;;2.90;;
39654;SDS011;25336;59.944;11.010;2022-11-10T09:58:10;9.13;;;3.25;;
39654;SDS011;25336;59.944;11.010;2022-11-10T10:00:37;7.93;;;2.75;;
39654;SDS011;25336;59.944;11.010;2022-11-10T10:03:05;10.45;;;2.80;;
39654;SDS011;25336;59.944;11.010;2022-11-10T10:10:59;14.15;;;4.95;;
39654;SDS011;25336;59.944;11.010;2022-11-10T10:19:15;15.85;;;4.07;;
39654;SDS011;25336;59.944;11.010;2022-11-10T10:24:16;9.73;;;4.05;;
39654;SDS011;25336;59.944;11.010;2022-11-10T10:26:48;12.20;;;3.83;;
39654;SDS011;25336;59.944;11.010;2022-11-10T10:29:21;10.30;;;5.03;;
39654;SDS011;25336;59.944;11.010;2022-11-10T10:31:49;15.32;;;6.47;;
39654;SDS011;25336;59.944;11.010;2022-11-10T10:34:26;17.63;;;6.78;;
39654;SDS011;25336;59.944;11.010;2022-11-10T10:36:54;14.32;;;5.97;;
39654;SDS011;25336;59.944;11.010;2022-11-10T10:39:37;17.88;;;5.45;;
39654;SDS011;25336;59.944;11.010;2022-11-10T10:45:25;12.65;;;5.25;;
39654;SDS011;25336;59.944;11.010;2022-11-10T10:47:53;13.52;;;6.78;;
39654;SDS011;25336;59.944;11.010;2022-11-10T10:53:06;9.80;;;3.05;;
39654;SDS011;25336;59.944;11.010;2022-11-10T11:03:48;14.48;;;3.13;;
39654;SDS011;25336;59.944;11.010;2022-11-10T11:11:31;12.85;;;2.85;;
39654;SDS011;25336;59.944;11.010;2022-11-10T11:17:30;11.35;;;2.85;;
39654;SDS011;25336;59.944;11.010;2022-11-10T11:19:49;9.23;;;2.45;;
39654;SDS011;25336;59.944;11.010;2022-11-10T11:33:46;8.13;;;2.92;;
39654;SDS011;25336;59.944;11.010;2022-11-10T11:39:06;13.68;;;2.83;;
39654;SDS011;25336;59.944;11.010;2022-11-10T11:41:45;8.57;;;2.78;;
39654;SDS011;25336;59.944;11.010;2022-11-10T11:53:28;12.05;;;3.17;;
39654;SDS011;25336;59.944;11.010;2022-11-10T12:09:32;10.70;;;2.40;;
39654;SDS011;25336;59.944;11.010;2022-11-10T12:22:57;9.65;;;2.83;;
39654;SDS011;25336;59.944;11.010;2022-11-10T12:28:48;9.77;;;2.33;;
39654;SDS011;25336;59.944;11.010;2022-11-10T12:31:24;12.07;;;3.55;;
39654;SDS011;25336;59.944;11.010;2022-11-10T12:33:58;12.80;;;3.20;;
39654;SDS011;25336;59.944;11.010;2022-11-10T12:36:31;9.20;;;3.55;;
39654;SDS011;25336;59.944;11.010;2022-11-10T12:41:27;14.52;;;3.60;;
39654;SDS011;25336;59.944;11.010;2022-11-10T12:47:00;13.85;;;2.90;;
39654;SDS011;25336;59.944;11.010;2022-11-10T12:49:33;12.15;;;3.75;;
39654;SDS011;25336;59.944;11.010;2022-11-10T12:52:14;11.02;;;2.85;;
39654;SDS011;25336;59.944;11.010;2022-11-10T12:55:11;16.05;;;3.78;;
39654;SDS011;25336;59.944;11.010;2022-11-10T12:57:38;11.50;;;2.60;;
39654;SDS011;25336;59.944;11.010;2022-11-10T13:00:06;16.85;;;3.00;;
39654;SDS011;25336;59.944;11.010;2022-11-10T13:02:52;12.85;;;2.38;;
39654;SDS011;25336;59.944;11.010;2022-11-10T13:05:24;12.07;;;3.05;;
39654;SDS011;25336;59.944;11.010;2022-11-10T13:07:50;14.23;;;3.13;;
39654;SDS011;25336;59.944;11.010;2022-11-10T13:10:56;10.57;;;2.72;;
39654;SDS011;25336;59.944;11.010;2022-11-10T13:13:26;12.05;;;2.33;;
39654;SDS011;25336;59.944;11.010;2022-11-10T13:15:56;20.95;;;3.17;;
39654;SDS011;25336;59.944;11.010;2022-11-10T13:21:10;14.60;;;3.38;;
39654;SDS011;25336;59.944;11.010;2022-11-10T13:26:48;11.23;;;2.70;;
39654;SDS011;25336;59.944;11.010;2022-11-10T13:29:02;12.98;;;2.47;;
39654;SDS011;25336;59.944;11.010;2022-11-10T13:31:53;13.77;;;3.35;;
39654;SDS011;25336;59.944;11.010;2022-11-10T13:36:47;10.02;;;2.58;;
39654;SDS011;25336;59.944;11.010;2022-11-10T13:47:03;7.40;;;2.20;;
39654;SDS011;25336;59.944;11.010;2022-11-10T13:54:53;12.85;;;3.97;;
39654;SDS011;25336;59.944;11.010;2022-11-10T14:00:23;11.32;;;2.75;;
39654;SDS011;25336;59.944;11.010;2022-11-10T14:02:51;13.18;;;3.45;;
39654;SDS011;25336;59.944;11.010;2022-11-10T14:08:05;11.27;;;3.15;;
39654;SDS011;25336;59.944;11.010;2022-11-10T14:10:38;7.65;;;2.47;;
39654;SDS011;25336;59.944;11.010;2022-11-10T14:13:17;4.90;;;2.10;;
39654;SDS011;25336;59.944;11.010;2022-11-10T14:15:48;14.75;;;4.88;;
39654;SDS011;25336;59.944;11.010;2022-11-10T14:21:10;11.10;;;2.15;;
39654;SDS011;25336;59.944;11.010;2022-11-10T14:23:47;5.93;;;1.83;;
39654;SDS011;25336;59.944;11.010;2022-11-10T14:28:54;10.15;;;2.80;;
39654;SDS011;25336;59.944;11.010;2022-11-10T14:31:21;5.22;;;1.98;;
39654;SDS011;25336;59.944;11.010;2022-11-10T14:33:55;2.10;;;1.55;;
39654;SDS011;25336;59.944;11.010;2022-11-10T14:36:22;6.72;;;2.13;;
39654;SDS011;25336;59.944;11.010;2022-11-10T14:38:49;7.90;;;2.17;;
39654;SDS011;25336;59.944;11.010;2022-11-10T14:41:19;3.20;;;1.52;;
39654;SDS011;25336;59.944;11.010;2022-11-10T14:44:00;11.02;;;1.52;;
39654;SDS011;25336;59.944;11.010;2022-11-10T14:46:30;6.03;;;1.67;;
39654;SDS011;25336;59.944;11.010;2022-11-10T14:48:56;6.10;;;1.80;;
39654;SDS011;25336;59.944;11.010;2022-11-10T14:51:23;8.10;;;2.33;;
39654;SDS011;25336;59.944;11.010;2022-11-10T14:53:52;4.78;;;1.73;;
39654;SDS011;25336;59.944;11.010;2022-11-10T14:56:29;4.25;;;1.40;;
39654;SDS011;25336;59.944;11.010;2022-11-10T14:59:00;5.88;;;2.22;;
39654;SDS011;25336;59.944;11.010;2022-11-10T15:01:28;4.43;;;1.70;;
39654;SDS011;25336;59.944;11.010;2022-11-10T15:06:25;5.13;;;2.35;;
39654;SDS011;25336;59.944;11.010;2022-11-10T15:08:51;8.02;;;2.15;;
39654;SDS011;25336;59.944;11.010;2022-11-10T15:12:04;5.10;;;1.85;;
39654;SDS011;25336;59.944;11.010;2022-11-10T15:17:01;2.80;;;1.45;;
39654;SDS011;25336;59.944;11.010;2022-11-10T15:22:33;4.28;;;1.70;;
39654;SDS011;25336;59.944;11.010;2022-11-10T15:25:14;2.05;;;1.30;;
39654;SDS011;25336;59.944;11.010;2022-11-10T15:27:41;4.85;;;1.80;;
39654;SDS011;25336;59.944;11.010;2022-11-10T15:30:21;3.92;;;1.67;;
39654;SDS011;25336;59.944;11.010;2022-11-10T15:32:49;13.93;;;1.83;;
39654;SDS011;25336;59.944;11.010;2022-11-10T15:37:57;8.60;;;1.90;;
39654;SDS011;25336;59.944;11.010;2022-11-10T15:43:14;6.68;;;1.80;;
39654;SDS011;25336;59.944;11.010;2022-11-10T15:45:42;5.82;;;1.90;;
39654;SDS011;25336;59.944;11.010;2022-11-10T15:48:12;9.13;;;2.58;;
39654;SDS011;25336;59.944;11.010;2022-11-10T15:50:40;10.65;;;2.67;;
39654;SDS011;25336;59.944;11.010;2022-11-10T15:53:10;9.23;;;2.60;;
39654;SDS011;25336;59.944;11.010;2022-11-10T15:55:41;10.75;;;3.60;;
39654;SDS011;25336;59.944;11.010;2022-11-10T15:58:20;10.27;;;2.97;;
39654;SDS011;25336;59.944;11.010;2022-11-10T16:00:47;10.60;;;2.60;;
39654;SDS011;25336;59.944;11.010;2022-11-10T16:03:13;6.60;;;2.53;;
39654;SDS011;25336;59.944;11.010;2022-11-10T16:05:42;6.82;;;2.95;;
39654;SDS011;25336;59.944;11.010;2022-11-10T16:08:26;9.70;;;3.60;;
39654;SDS011;25336;59.944;11.010;2022-11-10T16:10:55;5.63;;;3.05;;
39654;SDS011;25336;59.944;11.010;2022-11-10T16:13:21;7.40;;;3.08;;
39654;SDS011;25336;59.944;11.010;2022-11-10T16:15:49;10.77;;;3.30;;
39654;SDS011;25336;59.944;11.010;2022-11-10T16:18:17;5.32;;;2.17;;
39654;SDS011;25336;59.944;11.010;2022-11-10T16:20:45;15.35;;;3.03;;
39654;SDS011;25336;59.944;11.010;2022-11-10T16:23:11;6.95;;;3.10;;
39654;SDS011;25336;59.944;11.010;2022-11-10T16:25:37;11.38;;;2.30;;
39654;SDS011;25336;59.944;11.010;2022-11-10T16:28:03;6.00;;;2.83;;
39654;SDS011;25336;59.944;11.010;2022-11-10T16:30:30;10.75;;;2.70;;
39654;SDS011;25336;59.944;11.010;2022-11-10T16:32:56;11.93;;;2.45;;
39654;SDS011;25336;59.944;11.010;2022-11-10T16:35:23;6.32;;;2.45;;
39654;SDS011;25336;59.944;11.010;2022-11-10T16:37:48;10.73;;;4.35;;
39654;SDS011;25336;59.944;11.010;2022-11-10T16:40:21;9.45;;;4.10;;
39654;SDS011;25336;59.944;11.010;2022-11-10T16:42:48;12.50;;;3.60;;
39654;SDS011;25336;59.944;11.010;2022-11-10T16:47:44;7.25;;;3.30;;
39654;SDS011;25336;59.944;11.010;2022-11-10T16:52:57;8.65;;;3.78;;
39654;SDS011;25336;59.944;11.010;2022-11-10T16:55:26;10.00;;;2.70;;
39654;SDS011;25336;59.944;11.010;2022-11-10T16:57:52;4.70;;;2.13;;
39654;SDS011;25336;59.944;11.010;2022-11-10T17:00:18;6.60;;;2.03;;
39654;SDS011;25336;59.944;11.010;2022-11-10T17:02:44;5.70;;;2.35;;
39654;SDS011;25336;59.944;11.010;2022-11-10T17:05:26;5.78;;;2.53;;
39654;SDS011;25336;59.944;11.010;2022-11-10T17:07:52;5.15;;;2.30;;